createdAt,value
2022-08-05T00:00:12.873Z,27.41
2022-08-05T00:02:43.852Z,27.46
2022-08-05T00:06:02.985Z,27.46
2022-08-05T00:08:35.217Z,27.18
2022-08-05T00:11:48.781Z,27.00
2022-08-05T00:14:36.438Z,26.86
2022-08-05T00:17:03.664Z,26.81
2022-08-05T00:20:01.982Z,26.81
2022-08-05T00:22:29.995Z,26.81
2022-08-05T00:25:17.976Z,26.82
2022-08-05T00:28:05.646Z,26.85
2022-08-05T00:30:32.434Z,26.77
2022-08-05T00:32:59.653Z,26.93
2022-08-05T00:35:33.296Z,26.92
2022-08-05T00:38:00.453Z,26.99
2022-08-05T00:40:29.771Z,27.18
2022-08-05T00:43:17.124Z,27.10
2022-08-05T00:46:18.029Z,26.98
2022-08-05T00:49:20.108Z,26.95
2022-08-05T00:51:50.639Z,26.82
2022-08-05T00:54:18.995Z,26.83
2022-08-05T00:56:51.494Z,26.67
2022-08-05T00:59:18.870Z,26.59
2022-08-05T01:01:48.987Z,26.58
2022-08-05T01:04:16.194Z,26.70
2022-08-05T01:06:48.689Z,26.61
2022-08-05T01:09:36.045Z,26.37
2022-08-05T01:12:20.624Z,26.34
2022-08-05T01:15:35.516Z,26.45
2022-08-05T01:18:37.015Z,26.53
2022-08-05T01:21:38.107Z,26.50
2022-08-05T01:24:25.512Z,26.54
2022-08-05T01:27:22.242Z,26.75
2022-08-05T01:30:04.301Z,26.74
2022-08-05T01:32:33.665Z,26.64
2022-08-05T01:35:02.204Z,26.56
2022-08-05T01:37:36.656Z,26.52
2022-08-05T01:40:12.581Z,26.49
2022-08-05T01:42:41.063Z,26.43
2022-08-05T01:45:09.054Z,26.46
2022-08-05T01:47:39.426Z,26.46
2022-08-05T01:50:34.040Z,26.64
2022-08-05T01:53:57.871Z,26.55
2022-08-05T01:58:10.295Z,26.12
2022-08-05T01:59:26.930Z,25.97
2022-08-05T02:01:56.737Z,26.13
2022-08-05T02:04:26.609Z,26.08
2022-08-05T02:06:53.753Z,26.06
2022-08-05T02:09:41.064Z,26.10
2022-08-05T02:12:21.717Z,26.20
2022-08-05T02:15:07.093Z,26.11
2022-08-05T02:18:31.992Z,26.10
2022-08-05T02:20:58.800Z,26.27
2022-08-05T02:23:41.239Z,26.46
2022-08-05T02:26:30.045Z,26.60
2022-08-05T02:29:21.290Z,26.43
2022-08-05T02:31:52.245Z,26.18
2022-08-05T02:34:24.100Z,26.07
2022-08-05T02:36:57.495Z,26.16
2022-08-05T02:39:25.166Z,26.22
2022-08-05T02:42:00.486Z,26.36
2022-08-05T02:44:28.957Z,26.41
2022-08-05T02:47:00.329Z,26.24
2022-08-05T02:49:35.637Z,26.23
2022-08-05T02:52:05.835Z,26.03
2022-08-05T02:54:53.080Z,26.20
2022-08-05T02:58:10.667Z,26.20
2022-08-05T03:01:14.141Z,25.90
2022-08-05T03:04:17.104Z,26.05
2022-08-05T03:08:01.898Z,25.96
2022-08-05T03:10:39.103Z,26.23
2022-08-05T03:13:17.087Z,26.10
2022-08-05T03:15:45.031Z,26.25
2022-08-05T03:18:12.013Z,26.29
2022-08-05T03:20:48.569Z,26.28
2022-08-05T03:23:15.986Z,25.94
2022-08-05T03:26:04.267Z,25.99
2022-08-05T03:28:31.006Z,26.07
2022-08-05T03:30:59.706Z,25.91
2022-08-05T03:33:42.325Z,25.92
2022-08-05T03:36:14.979Z,25.85
2022-08-05T03:38:42.237Z,25.92
2022-08-05T03:41:19.355Z,26.02
2022-08-05T03:44:09.068Z,25.94
2022-08-05T03:46:37.459Z,26.07
2022-08-05T03:49:04.721Z,26.04
2022-08-05T03:52:36.558Z,25.91
2022-08-05T03:55:54.081Z,25.83
2022-08-05T03:57:42.458Z,25.55
2022-08-05T04:00:44.314Z,25.26
2022-08-05T04:04:09.321Z,25.22
2022-08-05T04:06:51.759Z,25.03
2022-08-05T04:09:53.670Z,25.03
2022-08-05T04:15:00.628Z,24.75
2022-08-05T04:17:55.651Z,24.81
2022-08-05T04:20:18.999Z,24.49
2022-08-05T04:22:47.094Z,24.33
2022-08-05T04:25:15.809Z,24.30
2022-08-05T04:27:43.693Z,24.31
2022-08-05T04:30:23.728Z,24.27
2022-08-05T04:32:53.594Z,24.52
2022-08-05T04:35:20.340Z,24.51
2022-08-05T04:38:01.577Z,24.52
2022-08-05T04:40:32.845Z,25.22
2022-08-05T04:42:59.597Z,25.50
2022-08-05T04:45:48.591Z,26.10
2022-08-05T04:48:18.740Z,27.01
2022-08-05T04:51:03.794Z,27.17
2022-08-05T04:53:58.153Z,28.18
2022-08-05T04:56:43.602Z,29.09
2022-08-05T04:59:21.964Z,29.61
2022-08-05T05:02:36.433Z,28.60
2022-08-05T05:05:35.149Z,29.22
2022-08-05T05:08:56.170Z,29.95
2022-08-05T05:11:52.895Z,30.39
2022-08-05T05:14:27.870Z,30.97
2022-08-05T05:16:59.113Z,31.70
2022-08-05T05:19:27.295Z,31.72
2022-08-05T05:22:23.712Z,32.47
2022-08-05T05:24:58.764Z,33.39
2022-08-05T05:27:44.867Z,33.45
2022-08-05T05:30:35.201Z,32.02
2022-08-05T05:33:23.418Z,31.49
2022-08-05T05:35:50.499Z,31.29
2022-08-05T05:38:22.835Z,31.65
2022-08-05T05:40:54.816Z,33.35
2022-08-05T05:43:56.500Z,33.97
2022-08-05T05:46:15.834Z,35.11
2022-08-05T05:49:06.448Z,35.21
2022-08-05T05:52:05.817Z,35.48
2022-08-05T05:54:50.341Z,35.71
2022-08-05T05:57:19.408Z,36.88
2022-08-05T05:59:47.208Z,35.58
2022-08-05T06:02:37.527Z,36.08
2022-08-05T06:05:38.395Z,35.97
2022-08-05T06:08:39.590Z,35.49
2022-08-05T06:11:26.059Z,37.23
2022-08-05T06:13:54.001Z,35.74
2022-08-05T06:16:30.850Z,36.22
2022-08-05T06:19:00.935Z,36.29
2022-08-05T06:21:35.781Z,34.38
2022-08-05T06:24:06.135Z,33.43
2022-08-05T06:26:35.975Z,33.94
2022-08-05T06:29:03.370Z,33.34
2022-08-05T06:31:32.912Z,34.52
2022-08-05T06:34:06.074Z,34.64
2022-08-05T06:36:37.371Z,35.40
2022-08-05T06:39:21.710Z,34.11
2022-08-05T06:42:10.213Z,31.88
2022-08-05T06:45:20.812Z,33.27
2022-08-05T06:48:36.926Z,33.70
2022-08-05T06:50:49.970Z,33.94
2022-08-05T06:53:22.727Z,35.04
2022-08-05T06:55:56.371Z,35.45
2022-08-05T06:58:35.361Z,35.56
2022-08-05T07:01:05.208Z,35.56
2022-08-05T07:03:52.255Z,36.18
2022-08-05T07:06:53.266Z,37.05
2022-08-05T07:09:55.378Z,36.56
2022-08-05T07:12:57.302Z,37.25
2022-08-05T07:16:01.614Z,36.48
2022-08-05T07:18:30.817Z,37.99
2022-08-05T07:20:57.825Z,38.18
2022-08-05T07:23:26.401Z,36.45
2022-08-05T07:25:57.077Z,36.62
2022-08-05T07:28:25.293Z,36.09
2022-08-05T07:31:13.265Z,32.59
2022-08-05T07:33:55.679Z,35.08
2022-08-05T07:36:27.440Z,33.66
2022-08-05T07:38:54.999Z,35.56
2022-08-05T07:42:12.993Z,36.53
2022-08-05T07:44:43.185Z,35.99
2022-08-05T07:47:13.432Z,34.63
2022-08-05T07:49:43.553Z,34.14
2022-08-05T07:52:21.440Z,34.84
2022-08-05T07:54:50.749Z,36.11
2022-08-05T07:57:51.269Z,35.49
2022-08-05T08:00:11.494Z,36.68
2022-08-05T08:03:13.847Z,36.61
2022-08-05T08:05:55.785Z,34.90
2022-08-05T08:08:43.391Z,35.43
2022-08-05T08:11:48.183Z,34.93
2022-08-05T08:14:34.819Z,35.30
2022-08-05T08:17:02.557Z,36.12
2022-08-05T08:20:21.204Z,34.43
2022-08-05T08:22:16.599Z,34.44
2022-08-05T08:24:51.736Z,34.06
2022-08-05T08:27:18.895Z,33.03
2022-08-05T08:30:05.156Z,33.66
2022-08-05T08:32:33.987Z,33.75
2022-08-05T08:35:07.465Z,33.41
2022-08-05T08:38:01.298Z,34.46
2022-08-05T08:40:45.704Z,33.67
2022-08-05T08:45:25.130Z,34.16
2022-08-05T08:47:01.307Z,34.01
2022-08-05T08:50:22.655Z,34.75
2022-08-05T08:52:33.547Z,35.33
2022-08-05T08:55:00.613Z,34.19
2022-08-05T08:57:42.065Z,34.82
2022-08-05T09:00:15.749Z,34.61
2022-08-05T09:03:06.357Z,34.44
2022-08-05T09:06:08.901Z,34.95
2022-08-05T09:09:13.353Z,35.13
2022-08-05T09:12:00.173Z,34.47
2022-08-05T09:14:58.582Z,34.75
2022-08-05T09:17:45.717Z,33.94
2022-08-05T09:20:51.400Z,35.11
2022-08-05T09:23:37.469Z,35.41
2022-08-05T09:26:20.679Z,36.20
2022-08-05T09:28:49.400Z,35.55
2022-08-05T09:31:44.049Z,36.08
2022-08-05T09:34:31.040Z,35.17
2022-08-05T09:36:59.963Z,36.12
2022-08-05T09:39:39.453Z,35.56
2022-08-05T09:42:17.393Z,34.61
2022-08-05T09:44:52.537Z,33.86
2022-08-05T09:47:24.151Z,34.18
2022-08-05T09:49:57.067Z,34.76
2022-08-05T09:52:33.057Z,35.80
2022-08-05T09:55:55.508Z,36.43
2022-08-05T09:57:48.862Z,34.34
2022-08-05T10:00:24.713Z,33.86
2022-08-05T10:03:04.437Z,35.04
2022-08-05T10:05:46.177Z,35.50
2022-08-05T10:08:38.540Z,35.02
2022-08-05T10:11:23.000Z,36.34
2022-08-05T10:13:49.989Z,35.47
2022-08-05T10:16:41.875Z,35.10
2022-08-05T10:19:23.535Z,34.63
2022-08-05T10:21:59.121Z,34.88
2022-08-05T10:24:27.095Z,34.73
2022-08-05T10:27:00.449Z,35.06
2022-08-05T10:30:06.559Z,35.69
2022-08-05T10:33:05.142Z,36.08
2022-08-05T10:35:59.702Z,35.12
2022-08-05T10:38:28.539Z,34.87
2022-08-05T10:41:28.073Z,34.71
2022-08-05T10:44:17.175Z,36.02
2022-08-05T10:46:50.702Z,36.15
2022-08-05T10:49:26.908Z,35.10
2022-08-05T10:52:13.415Z,35.78
2022-08-05T10:55:05.272Z,35.53
2022-08-05T10:57:34.216Z,35.52
2022-08-05T11:00:12.193Z,35.06
2022-08-05T11:03:25.979Z,36.05
2022-08-05T11:06:14.968Z,36.29
2022-08-05T11:09:31.896Z,36.48
2022-08-05T11:12:33.348Z,36.50
2022-08-05T11:15:20.001Z,35.34
2022-08-05T11:18:11.615Z,35.09
2022-08-05T11:20:52.581Z,36.27
2022-08-05T11:24:05.093Z,36.01
2022-08-05T11:26:43.403Z,35.20
2022-08-05T11:29:53.423Z,35.27
2022-08-05T11:32:54.432Z,35.09
2022-08-05T11:36:02.878Z,36.08
2022-08-05T11:38:45.708Z,36.02
2022-08-05T11:41:57.989Z,35.67
2022-08-05T11:44:12.680Z,36.03
2022-08-05T11:47:11.797Z,36.32
2022-08-05T11:49:43.235Z,36.38
2022-08-05T11:52:23.508Z,36.08
2022-08-05T11:54:57.478Z,35.60
2022-08-05T11:57:29.229Z,35.73
2022-08-05T11:59:58.100Z,36.17
2022-08-05T12:02:46.554Z,36.92
2022-08-05T12:05:47.512Z,36.46
2022-08-05T12:08:53.561Z,35.76
2022-08-05T12:11:40.446Z,36.41
2022-08-05T12:14:10.242Z,34.95
2022-08-05T12:16:39.640Z,35.13
2022-08-05T12:20:25.582Z,35.83
2022-08-05T12:22:30.017Z,36.17
2022-08-05T12:24:58.975Z,35.86
2022-08-05T12:27:27.119Z,36.62
2022-08-05T12:30:05.128Z,35.49
2022-08-05T12:32:33.178Z,35.97
2022-08-05T12:35:00.188Z,36.20
2022-08-05T12:37:31.751Z,35.87
2022-08-05T12:40:03.738Z,35.88
2022-08-05T12:42:37.587Z,35.69
2022-08-05T12:45:08.873Z,36.29
2022-08-05T12:47:37.483Z,36.89
2022-08-05T12:50:15.958Z,36.96
2022-08-05T12:53:09.582Z,36.76
2022-08-05T12:56:35.395Z,35.53
2022-08-05T12:59:20.745Z,35.93
2022-08-05T13:02:16.664Z,36.39
2022-08-05T13:05:19.514Z,36.75
2022-08-05T13:08:21.528Z,36.29
2022-08-05T13:12:01.741Z,36.21
2022-08-05T13:14:19.812Z,35.76
2022-08-05T13:17:08.518Z,36.07
2022-08-05T13:20:06.974Z,36.50
2022-08-05T13:22:39.713Z,36.75
2022-08-05T13:25:19.322Z,36.22
2022-08-05T13:27:50.382Z,36.72
2022-08-05T13:30:39.077Z,36.63
2022-08-05T13:34:21.355Z,37.05
2022-08-05T13:36:09.231Z,37.23
2022-08-05T13:38:41.943Z,36.78
2022-08-05T13:41:10.186Z,36.75
2022-08-05T13:43:44.529Z,36.32
2022-08-05T13:46:51.042Z,36.39
2022-08-05T13:49:09.808Z,36.60
2022-08-05T13:51:41.252Z,36.42
2022-08-05T13:54:12.003Z,36.75
2022-08-05T13:56:50.875Z,36.50
2022-08-05T13:59:24.207Z,36.94
2022-08-05T14:02:19.749Z,36.99
2022-08-05T14:05:29.742Z,36.35
2022-08-05T14:08:42.552Z,36.62
2022-08-05T14:12:04.267Z,36.72
2022-08-05T14:14:49.898Z,37.05
2022-08-05T14:17:18.394Z,37.34
2022-08-05T14:19:55.187Z,36.76
2022-08-05T14:22:23.917Z,36.42
2022-08-05T14:24:57.394Z,36.86
2022-08-05T14:27:24.234Z,37.30
2022-08-05T14:29:55.281Z,37.09
2022-08-05T14:32:27.196Z,37.19
2022-08-05T14:34:56.889Z,37.59
2022-08-05T14:37:45.582Z,37.39
2022-08-05T14:40:13.960Z,36.87
2022-08-05T14:42:41.418Z,36.59
2022-08-05T14:45:10.390Z,36.53
2022-08-05T14:48:02.993Z,36.55
2022-08-05T14:50:25.325Z,36.59
2022-08-05T14:52:56.916Z,36.79
2022-08-05T14:55:52.094Z,36.71
2022-08-05T14:58:33.161Z,36.87
2022-08-05T15:01:00.496Z,36.65
2022-08-05T15:03:48.615Z,36.52
2022-08-05T15:06:49.867Z,36.74
2022-08-05T15:09:54.095Z,36.94
2022-08-05T15:12:51.613Z,37.22
2022-08-05T15:15:54.589Z,37.06
2022-08-05T15:18:08.808Z,37.12
2022-08-05T15:20:35.919Z,36.73
2022-08-05T15:23:04.018Z,36.82
2022-08-05T15:25:50.878Z,36.98
2022-08-05T15:28:38.602Z,36.67
2022-08-05T15:31:23.559Z,37.07
2022-08-05T15:34:18.458Z,36.66
2022-08-05T15:36:48.133Z,37.04
2022-08-05T15:41:01.279Z,36.87
2022-08-05T15:42:01.890Z,36.69
2022-08-05T15:44:48.588Z,36.86
2022-08-05T15:47:16.816Z,37.22
2022-08-05T15:49:58.771Z,37.12
2022-08-05T15:52:51.781Z,37.05
2022-08-05T15:55:16.094Z,37.23
2022-08-05T15:57:43.326Z,36.84
2022-08-05T16:00:12.459Z,36.91
2022-08-05T16:02:56.673Z,36.47
2022-08-05T16:05:59.669Z,36.48
2022-08-05T16:09:00.641Z,36.83
2022-08-05T16:12:00.392Z,36.94
2022-08-05T16:14:27.161Z,36.76
2022-08-05T16:17:14.643Z,36.49
2022-08-05T16:20:04.391Z,36.49
2022-08-05T16:22:38.018Z,36.77
2022-08-05T16:25:09.835Z,36.84
2022-08-05T16:28:00.252Z,36.84
2022-08-05T16:30:28.788Z,36.52
2022-08-05T16:32:56.472Z,36.51
2022-08-05T16:35:28.018Z,36.43
2022-08-05T16:38:15.337Z,36.38
2022-08-05T16:40:52.146Z,36.64
2022-08-05T16:43:23.895Z,36.85
2022-08-05T16:46:06.331Z,36.89
2022-08-05T16:48:37.871Z,36.42
2022-08-05T16:51:30.845Z,36.37
2022-08-05T16:54:28.997Z,36.38
2022-08-05T16:57:53.361Z,36.33
2022-08-05T17:00:54.710Z,35.78
2022-08-05T17:03:25.043Z,35.69
2022-08-05T17:05:59.346Z,35.76
2022-08-05T17:08:52.676Z,35.66
2022-08-05T17:11:59.640Z,35.46
2022-08-05T17:14:40.278Z,35.27
2022-08-05T17:17:29.576Z,35.19
2022-08-05T17:20:23.214Z,35.18
2022-08-05T17:22:55.663Z,35.26
2022-08-05T17:25:33.922Z,35.08
2022-08-05T17:28:28.837Z,34.83
2022-08-05T17:31:41.363Z,34.49
2022-08-05T17:34:32.054Z,34.20
2022-08-05T17:37:00.090Z,34.03
2022-08-05T17:39:34.449Z,33.92
2022-08-05T17:42:18.935Z,33.78
2022-08-05T17:45:17.939Z,33.69
2022-08-05T17:48:22.730Z,33.39
2022-08-05T17:51:09.098Z,33.47
2022-08-05T17:53:36.240Z,33.47
2022-08-05T17:56:04.648Z,33.51
2022-08-05T17:58:32.453Z,33.35
2022-08-05T18:00:59.704Z,33.11
2022-08-05T18:03:59.498Z,33.05
2022-08-05T18:06:15.513Z,33.14
2022-08-05T18:09:03.609Z,33.11
2022-08-05T18:11:44.153Z,33.04
2022-08-05T18:14:13.404Z,33.07
2022-08-05T18:17:00.729Z,33.12
2022-08-05T18:20:01.735Z,32.68
2022-08-05T18:23:11.926Z,32.86
2022-08-05T18:26:00.705Z,32.97
2022-08-05T18:28:29.142Z,32.86
2022-08-05T18:30:58.052Z,32.83
2022-08-05T18:33:24.895Z,32.67
2022-08-05T18:36:15.326Z,32.69
2022-08-05T18:38:56.369Z,32.63
2022-08-05T18:41:57.396Z,32.44
2022-08-05T18:44:11.387Z,32.46
2022-08-05T18:46:41.080Z,32.46
2022-08-05T18:49:30.678Z,32.46
2022-08-05T18:52:36.832Z,32.17
2022-08-05T18:55:17.168Z,32.13
2022-08-05T18:57:53.506Z,31.97
2022-08-05T19:00:27.051Z,31.83
2022-08-05T19:02:56.601Z,31.76
2022-08-05T19:06:05.683Z,31.65
2022-08-05T19:08:31.790Z,31.43
2022-08-05T19:11:37.054Z,31.25
2022-08-05T19:15:00.734Z,30.94
2022-08-05T19:18:09.830Z,30.82
2022-08-05T19:21:00.814Z,30.64
2022-08-05T19:24:06.840Z,30.42
2022-08-05T19:27:09.804Z,30.33
2022-08-05T19:30:04.785Z,30.22
2022-08-05T19:33:08.851Z,30.19
2022-08-05T19:35:57.586Z,30.26
2022-08-05T19:38:26.678Z,30.25
2022-08-05T19:40:53.768Z,30.18
2022-08-05T19:44:04.608Z,30.27
2022-08-05T19:46:16.934Z,30.28
2022-08-05T19:48:55.110Z,30.08
2022-08-05T19:52:09.326Z,29.94
2022-08-05T19:54:15.568Z,29.83
2022-08-05T19:56:49.814Z,29.59
2022-08-05T19:59:53.731Z,29.58
2022-08-05T20:02:39.799Z,29.55
2022-08-05T20:05:24.484Z,29.36
2022-08-05T20:08:14.922Z,29.38
2022-08-05T20:11:17.930Z,29.25
2022-08-05T20:14:26.791Z,29.28
2022-08-05T20:17:27.807Z,29.30
2022-08-05T20:20:32.809Z,29.32
2022-08-05T20:23:40.079Z,29.33
2022-08-05T20:26:17.867Z,29.31
2022-08-05T20:28:49.771Z,29.22
2022-08-05T20:31:17.350Z,29.34
2022-08-05T20:33:48.357Z,29.15
2022-08-05T20:36:18.103Z,29.28
2022-08-05T20:38:54.554Z,29.14
2022-08-05T20:41:27.560Z,29.30
2022-08-05T20:44:19.300Z,29.36
2022-08-05T20:46:58.166Z,29.32
2022-08-05T20:49:25.958Z,29.41
2022-08-05T20:51:54.085Z,29.36
2022-08-05T20:54:21.713Z,29.33
2022-08-05T20:56:48.848Z,29.24
2022-08-05T20:59:26.589Z,29.35
2022-08-05T21:01:57.247Z,29.22
2022-08-05T21:04:44.886Z,29.33
2022-08-05T21:07:51.952Z,29.39
2022-08-05T21:10:58.525Z,29.27
2022-08-05T21:13:55.904Z,29.39
2022-08-05T21:16:43.810Z,29.21
2022-08-05T21:19:24.392Z,29.30
2022-08-05T21:21:55.199Z,29.22
2022-08-05T21:24:22.028Z,29.27
2022-08-05T21:26:56.115Z,29.40
2022-08-05T21:29:48.516Z,29.31
2022-08-05T21:32:51.861Z,29.31
2022-08-05T21:35:55.809Z,29.33
2022-08-05T21:38:19.860Z,29.30
2022-08-05T21:40:46.891Z,29.30
2022-08-05T21:43:23.998Z,29.28
2022-08-05T21:45:56.964Z,29.29
2022-08-05T21:48:27.265Z,29.24
2022-08-05T21:50:54.644Z,29.15
2022-08-05T21:53:27.268Z,29.23
2022-08-05T21:56:04.794Z,29.23
2022-08-05T21:58:59.897Z,29.27
2022-08-05T22:01:48.313Z,29.03
2022-08-05T22:04:16.999Z,29.04
2022-08-05T22:06:43.956Z,29.09
2022-08-05T22:09:46.163Z,29.04
2022-08-05T22:12:50.677Z,29.08
2022-08-05T22:16:02.600Z,29.01
2022-08-05T22:18:58.663Z,28.96
2022-08-05T22:21:25.804Z,29.10
2022-08-05T22:24:13.360Z,29.13
2022-08-05T22:27:17.736Z,29.09
2022-08-05T22:29:44.563Z,29.06
2022-08-05T22:32:12.707Z,29.11
2022-08-05T22:34:44.451Z,29.23
2022-08-05T22:37:12.675Z,28.77
2022-08-05T22:39:39.508Z,28.67
2022-08-05T22:42:12.428Z,28.66
2022-08-05T22:44:47.076Z,28.75
2022-08-05T22:47:29.148Z,28.76
2022-08-05T22:50:26.623Z,28.74
2022-08-05T22:53:10.284Z,28.31
2022-08-05T22:55:57.062Z,28.50
2022-08-05T22:58:28.244Z,28.47
2022-08-05T23:00:56.960Z,28.33
2022-08-05T23:03:58.980Z,28.21
2022-08-05T23:06:30.937Z,28.07
2022-08-05T23:09:56.979Z,27.97
2022-08-05T23:12:54.557Z,28.15
2022-08-05T23:15:56.040Z,28.11
2022-08-05T23:18:36.353Z,27.97
2022-08-05T23:21:05.551Z,27.88
2022-08-05T23:23:37.059Z,28.15
2022-08-05T23:26:07.600Z,28.00
2022-08-05T23:28:34.500Z,28.13
2022-08-05T23:31:16.281Z,28.08
2022-08-05T23:34:06.167Z,27.97
2022-08-05T23:36:39.720Z,27.93
2022-08-05T23:39:32.560Z,27.79
2022-08-05T23:42:29.908Z,27.69
2022-08-05T23:44:57.133Z,27.77
2022-08-05T23:47:24.921Z,27.72
2022-08-05T23:49:55.566Z,27.74
2022-08-05T23:52:26.651Z,27.85
2022-08-05T23:54:58.244Z,27.98
2022-08-05T23:57:28.239Z,28.09
